Time;durP1;ratioP1;P1;durP2;ratioP2;P2;SDS_P1;SDS_P2;PMS_P1;PMS_P2;Temp;Humidity;BMP_temperature;BMP_pressure;BME280_temperature;BME280_humidity;BME280_pressure;Samples;Min_cycle;Max_cycle;Signal;HPM_P1;HPM_P2
2024/01/26 00:01:00;;;;;;;9.50;2.60;;;3.90;99.10;;;;;;5103327;28;20058;-67
2024/01/26 00:03:26;;;;;;;7.00;2.20;;;;;;;;;;5103130;28;20404;-67
2024/01/26 00:05:52;;;;;;;11.02;3.20;;;;;;;;;;5103199;28;20016;-66
2024/01/26 00:08:18;;;;;;;11.18;2.80;;;4.00;99.80;;;;;;5103111;28;20019;-66
2024/01/26 00:10:44;;;;;;;14.52;3.13;;;;;;;;;;5103105;28;20024;-66
2024/01/26 00:13:10;;;;;;;11.80;3.08;;;;;;;;;;5102642;28;20032;-66
2024/01/26 00:15:35;;;;;;;13.60;3.33;;;4.10;99.90;;;;;;5099387;28;20028;-66
2024/01/26 00:18:02;;;;;;;12.07;2.90;;;;;;;;;;5096578;28;20038;-65
2024/01/26 00:20:28;;;;;;;13.27;3.95;;;4.00;99.90;;;;;;5102480;28;20027;-67
2024/01/26 00:22:53;;;;;;;11.50;3.42;;;4.10;99.90;;;;;;5102682;28;20103;-67
2024/01/26 00:25:20;;;;;;;10.65;3.60;;;;;;;;;;5102700;28;20277;-67
2024/01/26 00:27:45;;;;;;;14.27;2.63;;;4.10;99.90;;;;;;5102723;28;20028;-67
2024/01/26 00:30:12;;;;;;;10.57;3.60;;;;;;;;;;5102416;28;20343;-67
2024/01/26 00:32:37;;;;;;;13.25;3.58;;;3.90;99.90;;;;;;5102469;28;20024;-67
2024/01/26 00:35:04;;;;;;;13.40;3.28;;;4.00;99.90;;;;;;5102413;28;20328;-67
2024/01/26 00:37:30;;;;;;;14.32;3.15;;;;;;;;;;5102256;28;20020;-67
2024/01/26 00:39:55;;;;;;;11.23;2.70;;;3.80;97.80;;;;;;5102270;28;20254;-67
2024/01/26 00:42:21;;;;;;;9.65;2.97;;;4.00;99.90;;;;;;5102238;28;20046;-67
2024/01/26 00:44:47;;;;;;;11.48;2.75;;;;;;;;;;5102144;28;20024;-68
2024/01/26 00:47:13;;;;;;;11.50;3.97;;;4.10;99.90;;;;;;5102280;28;20028;-68
2024/01/26 00:49:38;;;;;;;10.15;3.42;;;3.80;99.90;;;;;;5102286;28;20060;-67
2024/01/26 00:52:04;;;;;;;9.65;3.13;;;4.20;99.90;;;;;;5102077;28;20024;-70
2024/01/26 00:54:30;;;;;;;9.68;3.03;;;3.50;99.90;;;;;;5096780;28;20056;-70
2024/01/26 00:56:56;;;;;;;9.38;3.38;;;;;;;;;;5098049;28;20312;-70
2024/01/26 00:59:22;;;;;;;10.15;3.25;;;;;;;;;;5101798;28;20189;-70
2024/01/26 01:01:47;;;;;;;6.60;2.60;;;3.70;95.40;;;;;;5101969;28;20054;-71
2024/01/26 01:04:13;;;;;;;10.93;3.10;;;3.60;99.90;;;;;;5102051;28;20058;-71
2024/01/26 01:06:38;;;;;;;11.07;3.70;;;3.50;99.90;;;;;;5101979;28;20024;-71
2024/01/26 01:09:05;;;;;;;12.32;3.20;;;3.50;99.90;;;;;;5101739;28;20307;-71
2024/01/26 01:11:31;;;;;;;14.25;4.22;;;;;;;;;;5101949;28;20031;-70
2024/01/26 01:13:56;;;;;;;15.63;3.63;;;3.20;99.90;;;;;;5101772;28;20032;-70
2024/01/26 01:16:22;;;;;;;8.95;3.85;;;3.10;99.90;;;;;;5101889;28;20066;-70
2024/01/26 01:18:48;;;;;;;10.93;3.85;;;3.00;95.30;;;;;;5101738;28;20098;-71
2024/01/26 01:21:14;;;;;;;11.82;3.20;;;2.90;99.90;;;;;;5101408;28;20047;-71
2024/01/26 01:23:40;;;;;;;10.98;3.20;;;;;;;;;;5101485;28;20055;-71
2024/01/26 01:26:06;;;;;;;11.30;3.50;;;3.00;99.90;;;;;;5101027;28;20023;-71
2024/01/26 01:28:32;;;;;;;17.52;4.45;;;3.30;98.30;;;;;;5101592;28;20087;-71
2024/01/26 01:30:59;;;;;;;16.77;3.70;;;2.80;99.90;;;;;;5101367;28;20363;-68
2024/01/26 01:33:25;;;;;;;9.40;3.97;;;;;;;;;;5101650;28;20023;-68
2024/01/26 01:35:52;;;;;;;12.30;4.63;;;2.60;99.90;;;;;;5101383;28;20024;-68
2024/01/26 01:38:18;;;;;;;12.35;3.85;;;;;;;;;;5101436;28;20057;-69
2024/01/26 01:40:44;;;;;;;18.30;4.03;;;3.00;99.90;;;;;;5100124;28;20020;-69
2024/01/26 01:43:17;;;;;;;7.97;3.30;;;2.60;99.90;;;;;;5101332;28;20036;-69
2024/01/26 01:45:43;;;;;;;10.55;3.88;;;;;;;;;;5101275;28;20012;-70
2024/01/26 01:48:09;;;;;;;10.48;3.63;;;;;;;;;;5101138;28;20040;-70
2024/01/26 01:50:35;;;;;;;8.93;3.58;;;;;;;;;;5101428;28;20016;-70
2024/01/26 01:53:04;;;;;;;13.68;3.78;;;2.50;99.90;;;;;;5101147;28;20311;-69
2024/01/26 01:55:30;;;;;;;13.30;4.05;;;;;;;;;;5101399;28;20027;-69
2024/01/26 01:57:57;;;;;;;11.23;3.53;;;2.40;95.00;;;;;;5101109;28;20024;-69
2024/01/26 02:00:23;;;;;;;12.25;4.25;;;2.50;99.90;;;;;;5101114;28;20028;-70
2024/01/26 02:02:49;;;;;;;16.75;4.25;;;2.30;99.90;;;;;;5101208;28;20032;-69
2024/01/26 02:05:16;;;;;;;12.77;3.42;;;2.30;95.40;;;;;;5100954;28;20325;-69
2024/01/26 02:07:47;;;;;;;15.95;4.57;;;2.20;99.90;;;;;;5101335;28;20028;-67
2024/01/26 02:10:13;;;;;;;22.45;4.75;;;;;;;;;;5090540;28;20033;-67
2024/01/26 02:12:38;;;;;;;7.97;3.47;;;2.30;99.90;;;;;;5080860;28;20047;-67
2024/01/26 02:15:05;;;;;;;12.05;3.38;;;;;;;;;;5080649;28;20440;-68
2024/01/26 02:17:32;;;;;;;10.52;3.67;;;2.00;99.90;;;;;;5080818;28;20048;-68
2024/01/26 02:19:58;;;;;;;15.55;3.65;;;;;;;;;;5081094;28;20394;-69
2024/01/26 02:22:24;;;;;;;12.05;3.40;;;2.30;99.90;;;;;;5080659;28;20045;-69
2024/01/26 02:24:50;;;;;;;21.92;4.90;;;2.10;99.90;;;;;;5079550;28;20021;-69
2024/01/26 02:27:15;;;;;;;11.68;3.13;;;2.00;99.90;;;;;;5080629;28;20046;-67
2024/01/26 02:29:41;;;;;;;12.00;3.40;;;2.20;99.90;;;;;;5080640;28;20123;-67
2024/01/26 02:32:09;;;;;;;16.35;4.07;;;2.20;98.30;;;;;;5080649;28;20098;-67
2024/01/26 02:34:35;;;;;;;15.45;4.15;;;;;;;;;;5080562;28;20020;-67
2024/01/26 02:37:01;;;;;;;11.77;3.33;;;2.10;99.90;;;;;;5083387;28;20020;-67
2024/01/26 02:39:28;;;;;;;20.30;4.88;;;;;;;;;;5084247;28;20208;-68
2024/01/26 02:41:55;;;;;;;14.00;4.53;;;2.10;99.90;;;;;;5084278;28;20055;-68
2024/01/26 02:44:21;;;;;;;10.30;4.03;;;2.00;99.90;;;;;;5084302;28;20185;-68
2024/01/26 02:46:49;;;;;;;14.02;3.25;;;2.00;99.90;;;;;;5084142;28;20031;-68
2024/01/26 02:49:15;;;;;;;12.60;4.13;;;2.00;98.60;;;;;;5084176;28;20048;-70
2024/01/26 02:51:41;;;;;;;12.15;3.88;;;1.60;99.90;;;;;;5084009;28;20020;-69
2024/01/26 02:54:06;;;;;;;9.45;3.47;;;1.90;99.90;;;;;;5083963;28;20062;-69
2024/01/26 02:56:32;;;;;;;11.93;3.80;;;2.00;99.90;;;;;;5088214;28;20031;-68
2024/01/26 02:58:58;;;;;;;8.68;3.08;;;2.00;99.90;;;;;;5104444;28;20024;-68
2024/01/26 03:01:24;;;;;;;13.18;3.30;;;;;;;;;;5104318;28;20092;-68
2024/01/26 03:03:49;;;;;;;11.60;3.40;;;2.30;99.90;;;;;;5104018;28;20318;-68
2024/01/26 03:06:15;;;;;;;10.65;3.33;;;2.30;99.90;;;;;;5104425;28;20111;-68
2024/01/26 03:08:41;;;;;;;10.80;3.05;;;;;;;;;;5103193;28;20096;-68
2024/01/26 03:11:07;;;;;;;16.30;3.97;;;2.50;99.90;;;;;;5104331;28;20012;-68
2024/01/26 03:13:33;;;;;;;7.40;2.90;;;2.40;99.90;;;;;;5104276;28;20076;-68
2024/01/26 03:15:59;;;;;;;12.30;3.35;;;2.60;99.90;;;;;;5104153;28;20023;-69
2024/01/26 03:18:25;;;;;;;8.18;3.17;;;;;;;;;;5104149;28;20070;-68
2024/01/26 03:20:51;;;;;;;8.43;2.55;;;;;;;;;;5103795;28;20121;-68
2024/01/26 03:23:16;;;;;;;4.45;2.80;;;2.90;99.90;;;;;;5103684;28;20040;-70
2024/01/26 03:25:42;;;;;;;8.07;2.80;;;2.80;99.90;;;;;;5103909;28;20020;-69
2024/01/26 03:28:08;;;;;;;9.52;2.85;;;;;;;;;;5103682;28;20334;-69
2024/01/26 03:30:34;;;;;;;11.65;2.65;;;2.80;99.90;;;;;;5103450;28;20062;-68
2024/01/26 03:33:00;;;;;;;9.23;2.72;;;3.10;99.90;;;;;;5103669;28;20028;-68
2024/01/26 03:35:27;;;;;;;12.68;3.95;;;3.20;99.90;;;;;;5103757;28;20031;-68
2024/01/26 03:37:53;;;;;;;12.02;2.83;;;3.10;99.90;;;;;;5103519;28;20040;-68
2024/01/26 03:40:18;;;;;;;12.63;2.85;;;3.00;99.90;;;;;;5103639;28;20024;-68
2024/01/26 03:42:44;;;;;;;8.40;2.78;;;3.00;99.90;;;;;;5103251;28;20036;-68
2024/01/26 03:45:12;;;;;;;11.15;3.00;;;3.10;99.90;;;;;;5103630;28;20031;-70
2024/01/26 03:47:38;;;;;;;8.70;2.63;;;3.50;99.90;;;;;;5102762;28;20085;-68
2024/01/26 03:50:05;;;;;;;14.10;4.63;;;3.00;99.90;;;;;;5103518;28;20303;-68
2024/01/26 03:52:31;;;;;;;13.40;4.25;;;3.00;99.90;;;;;;5103440;28;20028;-68
2024/01/26 03:54:57;;;;;;;10.48;3.63;;;;;;;;;;5103112;28;20219;-67
2024/01/26 03:57:23;;;;;;;14.18;3.05;;;2.90;99.90;;;;;;5103123;28;20312;-66
2024/01/26 03:59:49;;;;;;;8.48;3.00;;;2.90;99.90;;;;;;5103119;28;20043;-66
2024/01/26 04:02:14;;;;;;;10.30;3.28;;;3.00;99.90;;;;;;5102905;28;20127;-66
2024/01/26 04:04:40;;;;;;;6.25;3.05;;;3.10;99.90;;;;;;5102959;28;20024;-67
2024/01/26 04:07:06;;;;;;;9.60;2.38;;;;;;;;;;5102879;28;20053;-67
2024/01/26 04:09:32;;;;;;;10.65;2.83;;;3.00;99.90;;;;;;5102998;28;20028;-66
2024/01/26 04:11:58;;;;;;;12.18;3.60;;;;;;;;;;5102863;28;20258;-66
2024/01/26 04:14:23;;;;;;;13.88;3.15;;;3.20;99.90;;;;;;5102857;28;20073;-67
2024/01/26 04:16:49;;;;;;;9.57;2.67;;;3.20;99.90;;;;;;5102858;28;20095;-66
2024/01/26 04:19:15;;;;;;;6.55;2.53;;;;;;;;;;5102892;28;20326;-67
2024/01/26 04:21:42;;;;;;;9.32;3.33;;;3.30;97.90;;;;;;5101294;28;20115;-66
2024/01/26 04:24:08;;;;;;;12.02;2.45;;;;;;;;;;5102934;28;20024;-66
2024/01/26 04:26:34;;;;;;;14.00;2.90;;;3.40;99.90;;;;;;5102836;28;20039;-66
2024/01/26 04:28:59;;;;;;;8.20;2.47;;;3.70;99.90;;;;;;5102698;28;20035;-69
2024/01/26 04:31:25;;;;;;;12.55;3.50;;;3.40;99.90;;;;;;5102338;28;20052;-70
2024/01/26 04:33:51;;;;;;;14.43;3.25;;;3.50;99.90;;;;;;5102415;28;20036;-70
2024/01/26 04:36:17;;;;;;;17.77;5.65;;;3.60;98.60;;;;;;5102451;28;20312;-71
2024/01/26 04:38:43;;;;;;;9.13;3.13;;;;;;;;;;5102290;28;20023;-69
2024/01/26 04:41:09;;;;;;;8.07;3.20;;;4.00;99.90;;;;;;5102275;28;20038;-69
2024/01/26 04:43:34;;;;;;;9.77;2.95;;;3.60;99.90;;;;;;5102052;28;20032;-71
2024/01/26 04:46:00;;;;;;;7.28;2.67;;;3.60;99.90;;;;;;5102297;28;20016;-72
2024/01/26 04:48:26;;;;;;;7.65;3.10;;;3.70;99.90;;;;;;5102100;28;20046;-69
2024/01/26 04:50:52;;;;;;;7.68;3.05;;;;;;;;;;5102075;28;20036;-69
2024/01/26 04:53:18;;;;;;;9.60;3.22;;;3.60;99.90;;;;;;5102247;28;20095;-71
2024/01/26 04:55:44;;;;;;;16.05;3.13;;;;;;;;;;5100944;28;20028;-68
2024/01/26 04:58:10;;;;;;;10.93;3.53;;;3.60;99.90;;;;;;5093943;28;20070;-69
2024/01/26 05:00:35;;;;;;;12.00;3.33;;;3.40;99.90;;;;;;5101437;28;20016;-70
2024/01/26 05:03:01;;;;;;;8.48;3.08;;;;;;;;;;5102117;28;20042;-70
2024/01/26 05:05:28;;;;;;;10.32;2.97;;;;;;;;;;5101879;28;20039;-69
2024/01/26 05:07:54;;;;;;;13.13;3.35;;;;;;;;;;5101806;28;20036;-69
2024/01/26 05:10:20;;;;;;;5.97;2.80;;;3.60;99.90;;;;;;5101771;28;20323;-69
2024/01/26 05:12:45;;;;;;;11.27;3.42;;;3.80;99.90;;;;;;5100945;28;20023;-69
2024/01/26 05:15:13;;;;;;;9.50;3.88;;;3.50;99.90;;;;;;5102156;28;20320;-67
2024/01/26 05:17:38;;;;;;;11.80;3.60;;;3.30;99.90;;;;;;5101722;28;20026;-70
2024/01/26 05:20:05;;;;;;;11.63;3.35;;;3.60;99.80;;;;;;5101661;28;20227;-70
2024/01/26 05:22:31;;;;;;;11.77;3.45;;;3.40;99.90;;;;;;5101500;28;20035;-67
2024/01/26 05:24:57;;;;;;;16.10;3.17;;;;;;;;;;5101133;28;20039;-68
2024/01/26 05:27:23;;;;;;;12.45;3.83;;;3.40;99.90;;;;;;5101512;28;20023;-67
2024/01/26 05:29:49;;;;;;;9.32;3.92;;;3.20;99.90;;;;;;5101850;28;20020;-67
2024/01/26 05:32:15;;;;;;;11.07;4.28;;;3.20;99.90;;;;;;5101260;28;20067;-67
2024/01/26 05:34:40;;;;;;;9.52;4.07;;;3.20;99.90;;;;;;5101743;28;20028;-68
2024/01/26 05:37:06;;;;;;;9.68;3.83;;;3.00;97.80;;;;;;5101538;28;20250;-68
2024/01/26 05:39:35;;;;;;;10.15;3.42;;;3.00;99.90;;;;;;5101689;28;20348;-69
2024/01/26 05:42:00;;;;;;;10.83;3.03;;;2.90;99.90;;;;;;5101442;28;20508;-69
2024/01/26 05:44:27;;;;;;;16.75;3.67;;;2.80;96.70;;;;;;5100201;28;20310;-69
2024/01/26 05:46:53;;;;;;;9.52;3.53;;;;;;;;;;5101370;28;20040;-69
2024/01/26 05:49:19;;;;;;;10.60;3.08;;;2.60;99.90;;;;;;5101454;28;20020;-70
2024/01/26 05:51:45;;;;;;;12.60;3.85;;;2.60;99.80;;;;;;5101274;28;20063;-72
2024/01/26 05:54:12;;;;;;;12.50;4.00;;;2.70;99.90;;;;;;5101203;28;20081;-71
2024/01/26 05:56:41;;;;;;;11.98;3.30;;;2.60;97.70;;;;;;5100490;28;20126;-71
2024/01/26 05:59:07;;;;;;;15.68;4.25;;;2.50;99.90;;;;;;5100289;28;20027;-71
2024/01/26 06:01:34;;;;;;;11.52;3.50;;;2.50;97.80;;;;;;5100421;28;20038;-71
2024/01/26 06:03:59;;;;;;;9.13;4.03;;;2.50;99.90;;;;;;5100129;28;20027;-71
2024/01/26 06:06:25;;;;;;;15.60;3.30;;;;;;;;;;5100851;28;20233;-70
2024/01/26 06:08:51;;;;;;;9.50;3.70;;;2.40;99.90;;;;;;5101367;28;20016;-70
2024/01/26 06:11:17;;;;;;;13.73;4.38;;;2.50;99.90;;;;;;5102778;28;20027;-68
2024/01/26 06:13:44;;;;;;;9.82;3.15;;;;;;;;;;5105289;28;20070;-69
2024/01/26 06:16:15;;;;;;;17.02;3.58;;;2.60;99.90;;;;;;5105264;28;20024;-69
2024/01/26 06:18:44;;;;;;;13.35;4.05;;;2.20;98.10;;;;;;5105197;28;20224;-72
2024/01/26 06:21:11;;;;;;;8.88;3.88;;;2.20;99.90;;;;;;5104942;28;20089;-71
2024/01/26 06:23:37;;;;;;;12.18;3.95;;;;;;;;;;5105469;28;20032;-71
2024/01/26 06:26:03;;;;;;;14.15;3.95;;;2.20;99.90;;;;;;5105391;28;20018;-71
2024/01/26 06:28:28;;;;;;;14.30;4.15;;;1.80;99.90;;;;;;5104091;28;20201;-71
2024/01/26 06:30:54;;;;;;;8.02;3.90;;;;;;;;;;5104982;28;20144;-71
2024/01/26 06:33:20;;;;;;;14.07;3.78;;;;;;;;;;5105185;28;20020;-72
2024/01/26 06:35:46;;;;;;;12.75;3.80;;;;;;;;;;5102655;28;20036;-72
2024/01/26 06:38:12;;;;;;;9.73;4.47;;;;;;;;;;5104680;28;20026;-72
2024/01/26 06:40:40;;;;;;;11.20;4.35;;;1.70;99.90;;;;;;5104608;28;20023;-71
2024/01/26 06:43:07;;;;;;;15.02;3.75;;;1.70;99.90;;;;;;5104492;28;20036;-72
2024/01/26 06:45:33;;;;;;;13.07;3.63;;;1.70;99.90;;;;;;5103624;28;20083;-71
2024/01/26 06:48:00;;;;;;;11.88;4.35;;;;;;;;;;5103971;28;20036;-70
2024/01/26 06:50:26;;;;;;;9.77;3.78;;;1.80;99.90;;;;;;5104189;28;20016;-71
2024/01/26 06:52:52;;;;;;;12.63;3.88;;;;;;;;;;5104322;28;20256;-72
2024/01/26 06:55:18;;;;;;;15.07;4.03;;;;;;;;;;5103780;28;20060;-71
2024/01/26 06:57:43;;;;;;;10.38;3.67;;;1.60;99.90;;;;;;5103235;28;20078;-72
2024/01/26 07:00:09;;;;;;;13.75;4.32;;;1.80;99.90;;;;;;5103636;28;20204;-71
2024/01/26 07:02:36;;;;;;;8.85;3.38;;;;;;;;;;5103568;28;20044;-71
2024/01/26 07:05:03;;;;;;;15.45;4.43;;;;;;;;;;5103409;28;20023;-70
2024/01/26 07:07:28;;;;;;;11.38;4.18;;;1.50;99.90;;;;;;5103771;28;20043;-69
2024/01/26 07:09:54;;;;;;;11.70;4.65;;;1.60;99.90;;;;;;5104022;28;20027;-68
2024/01/26 07:12:19;;;;;;;12.38;4.43;;;1.60;99.90;;;;;;5104160;28;20036;-69
2024/01/26 07:14:45;;;;;;;14.13;4.75;;;;;;;;;;5104133;28;20081;-69
2024/01/26 07:17:12;;;;;;;12.57;4.20;;;;;;;;;;5084870;28;20017;-70
2024/01/26 07:19:37;;;;;;;9.55;4.13;;;1.80;99.90;;;;;;5064660;28;20029;-68
2024/01/26 07:22:05;;;;;;;12.65;4.38;;;1.70;99.90;;;;;;5062892;28;20035;-68
2024/01/26 07:24:31;;;;;;;9.15;4.45;;;;;;;;;;5063811;28;20037;-68
2024/01/26 07:26:56;;;;;;;11.10;4.47;;;2.10;99.90;;;;;;5083479;28;20207;-68
2024/01/26 07:29:22;;;;;;;11.55;4.68;;;;;;;;;;5083325;28;20048;-68
2024/01/26 07:31:49;;;;;;;15.48;5.13;;;2.00;99.90;;;;;;5082243;28;20051;-68
2024/01/26 07:34:15;;;;;;;14.98;4.82;;;2.10;99.90;;;;;;5074141;28;20021;-68
2024/01/26 07:36:41;;;;;;;21.52;5.53;;;;;;;;;;5063251;28;20029;-68
2024/01/26 07:39:07;;;;;;;10.07;4.07;;;2.20;99.90;;;;;;5063044;28;20228;-68
2024/01/26 07:41:33;;;;;;;10.30;4.40;;;;;;;;;;5063171;28;20040;-68
2024/01/26 07:44:00;;;;;;;10.80;3.90;;;2.30;99.90;;;;;;5063448;28;20025;-68
2024/01/26 07:46:25;;;;;;;12.73;4.18;;;2.30;99.90;;;;;;5061714;28;20048;-68
2024/01/26 07:48:51;;;;;;;15.43;4.68;;;;;;;;;;5063200;28;20308;-68
2024/01/26 07:51:17;;;;;;;12.82;4.75;;;2.50;99.90;;;;;;5063146;28;20092;-68
2024/01/26 07:53:43;;;;;;;16.35;4.45;;;;;;;;;;5062963;28;20220;-68
2024/01/26 07:56:09;;;;;;;17.73;5.47;;;2.70;99.90;;;;;;5062114;28;20029;-70
2024/01/26 07:58:35;;;;;;;15.80;4.80;;;2.90;99.90;;;;;;5077284;28;20040;-73
2024/01/26 08:01:00;;;;;;;19.52;5.43;;;3.00;99.90;;;;;;5081495;28;20021;-73
2024/01/26 08:03:28;;;;;;;12.75;4.57;;;;;;;;;;5082932;28;20052;-73
2024/01/26 08:05:53;;;;;;;12.07;4.60;;;3.30;99.90;;;;;;5082954;28;20263;-73
2024/01/26 08:08:19;;;;;;;15.18;4.55;;;3.30;99.90;;;;;;5082812;28;20024;-72
2024/01/26 08:10:45;;;;;;;13.15;7.85;;;3.20;99.90;;;;;;5064584;28;20025;-73
2024/01/26 08:13:11;;;;;;;12.25;4.57;;;;;;;;;;5062741;28;20316;-72
2024/01/26 08:15:37;;;;;;;12.55;6.15;;;;;;;;;;5062661;28;20331;-72
2024/01/26 08:18:04;;;;;;;11.05;4.10;;;;;;;;;;5077494;28;20119;-71
2024/01/26 08:20:29;;;;;;;17.52;5.43;;;3.70;99.90;;;;;;5082623;28;20085;-72
2024/01/26 08:22:55;;;;;;;9.77;4.28;;;3.60;99.90;;;;;;5082571;28;20320;-71
2024/01/26 08:25:21;;;;;;;9.48;3.80;;;;;;;;;;5082390;28;20307;-72
2024/01/26 08:27:47;;;;;;;14.07;5.13;;;;;;;;;;5082229;28;20051;-71
2024/01/26 08:30:15;;;;;;;13.95;4.22;;;;;;;;;;5082339;28;20016;-71
2024/01/26 08:32:40;;;;;;;11.82;4.88;;;4.00;99.90;;;;;;5082519;28;20020;-71
2024/01/26 08:35:09;;;;;;;12.75;4.28;;;4.00;99.90;;;;;;5082202;28;20268;-72
2024/01/26 08:37:35;;;;;;;13.38;4.18;;;4.20;99.90;;;;;;5082062;28;20020;-72
2024/01/26 08:40:01;;;;;;;11.80;4.93;;;4.30;99.90;;;;;;5082246;28;20087;-72
2024/01/26 08:42:26;;;;;;;10.32;3.80;;;4.40;99.90;;;;;;5069880;28;20070;-72
2024/01/26 08:44:52;;;;;;;7.78;3.80;;;;;;;;;;5062352;28;20212;-72
2024/01/26 08:47:18;;;;;;;10.02;3.78;;;4.70;99.90;;;;;;5070783;28;20082;-71
2024/01/26 08:49:44;;;;;;;11.02;3.97;;;;;;;;;;5061928;28;20360;-72
2024/01/26 08:52:10;;;;;;;13.63;5.50;;;;;;;;;;5062178;28;20063;-73
2024/01/26 08:54:36;;;;;;;14.90;5.68;;;4.90;99.90;;;;;;5062083;28;20016;-73
2024/01/26 08:57:01;;;;;;;16.02;5.32;;;5.00;99.90;;;;;;5062100;28;20205;-72
2024/01/26 08:59:28;;;;;;;12.90;4.35;;;5.10;99.40;;;;;;5061692;28;20359;-72
2024/01/26 09:01:54;;;;;;;15.85;4.75;;;5.10;99.90;;;;;;5061754;28;20040;-72
2024/01/26 09:04:20;;;;;;;9.52;4.47;;;;;;;;;;5062057;28;20024;-72
2024/01/26 09:06:46;;;;;;;11.10;3.92;;;5.40;99.90;;;;;;5061798;28;20216;-72
2024/01/26 09:09:12;;;;;;;15.82;4.40;;;5.50;99.90;;;;;;5072829;28;20344;-72
2024/01/26 09:11:38;;;;;;;20.50;4.65;;;;;;;;;;5070904;28;20021;-71
2024/01/26 09:14:05;;;;;;;12.13;3.80;;;;;;;;;;5074182;28;20024;-72
2024/01/26 09:16:31;;;;;;;8.73;3.83;;;;;;;;;;5081576;28;20016;-68
2024/01/26 09:18:57;;;;;;;11.63;3.95;;;5.70;99.90;;;;;;5076167;28;20012;-68
2024/01/26 09:21:23;;;;;;;13.00;4.50;;;6.10;99.90;;;;;;5061065;28;20021;-68
2024/01/26 09:23:49;;;;;;;10.05;3.80;;;;;;;;;;5061373;28;20062;-68
2024/01/26 09:26:14;;;;;;;12.88;4.30;;;6.00;95.00;;;;;;5061152;28;20012;-68
2024/01/26 09:28:40;;;;;;;10.13;3.53;;;6.30;98.30;;;;;;5065333;28;20074;-68
2024/01/26 09:31:06;;;;;;;11.50;3.45;;;6.10;96.90;;;;;;5061020;28;20049;-68
2024/01/26 09:33:32;;;;;;;8.88;4.00;;;6.30;98.50;;;;;;5061101;28;20021;-68
2024/01/26 09:35:58;;;;;;;11.85;3.72;;;6.30;98.00;;;;;;5061056;28;20017;-68
2024/01/26 09:38:24;;;;;;;7.50;3.67;;;6.50;88.60;;;;;;5060867;28;20402;-68
2024/01/26 09:40:51;;;;;;;10.25;4.95;;;6.60;97.30;;;;;;5061218;28;20040;-68
2024/01/26 09:43:16;;;;;;;10.63;4.25;;;6.60;94.00;;;;;;5060870;28;20036;-68
2024/01/26 09:45:43;;;;;;;10.23;3.67;;;7.00;96.20;;;;;;5069364;28;20088;-68
2024/01/26 09:48:09;;;;;;;15.20;4.82;;;6.80;95.50;;;;;;5061119;28;20032;-68
2024/01/26 09:50:36;;;;;;;15.10;3.83;;;6.80;91.80;;;;;;5061116;28;20070;-68
2024/01/26 09:53:05;;;;;;;11.48;3.47;;;7.00;88.60;;;;;;5061024;28;20025;-68
2024/01/26 09:55:32;;;;;;;10.88;3.92;;;7.10;85.60;;;;;;5059669;28;20021;-68
2024/01/26 09:57:59;;;;;;;11.38;3.38;;;7.30;89.40;;;;;;5060701;28;20220;-68
2024/01/26 10:00:25;;;;;;;6.97;2.40;;;7.40;84.30;;;;;;5060737;28;20135;-68
2024/01/26 10:02:51;;;;;;;6.78;2.35;;;7.20;91.60;;;;;;5060587;28;20028;-68
2024/01/26 10:05:18;;;;;;;7.13;2.30;;;7.40;91.40;;;;;;5060914;28;20080;-68
2024/01/26 10:07:47;;;;;;;9.57;2.70;;;;;;;;;;5060778;28;20032;-68
2024/01/26 10:10:13;;;;;;;5.93;2.72;;;7.60;91.00;;;;;;5060831;28;20088;-67
2024/01/26 10:12:41;;;;;;;9.25;2.85;;;7.20;72.40;;;;;;5060588;28;20336;-68
2024/01/26 10:15:09;;;;;;;8.45;2.70;;;7.50;72.00;;;;;;5060565;28;20029;-68
2024/01/26 10:17:35;;;;;;;8.48;2.47;;;;;;;;;;5060699;28;20035;-68
2024/01/26 10:20:15;;;;;;;7.18;2.63;;;7.70;90.10;;;;;;5060841;28;20033;-68
2024/01/26 10:22:44;;;;;;;5.07;2.47;;;7.70;71.60;;;;;;5060492;28;20033;-68
2024/01/26 10:25:10;;;;;;;6.82;2.55;;;;;;;;;;5060762;28;20071;-68
2024/01/26 10:27:36;;;;;;;6.63;2.03;;;;;;;;;;5060820;28;20086;-68
2024/01/26 10:30:03;;;;;;;4.85;2.15;;;7.90;69.30;;;;;;5060448;28;20028;-69
2024/01/26 10:32:31;;;;;;;8.50;2.70;;;8.00;68.90;;;;;;5061049;28;20017;-68
2024/01/26 10:35:00;;;;;;;6.70;3.50;;;8.10;87.30;;;;;;5060623;28;20013;-68
2024/01/26 10:37:33;;;;;;;7.32;2.70;;;8.50;87.30;;;;;;5060558;28;20021;-69
2024/01/26 10:40:01;;;;;;;8.38;2.47;;;8.10;68.30;;;;;;5060586;28;20012;-68
2024/01/26 10:42:32;;;;;;;13.20;3.50;;;8.10;86.30;;;;;;5060432;28;20316;-68
2024/01/26 10:45:00;;;;;;;6.78;1.90;;;8.20;74.60;;;;;;5060509;28;20040;-68
2024/01/26 10:47:28;;;;;;;8.15;2.40;;;8.10;68.30;;;;;;5060352;28;20033;-68
2024/01/26 10:49:56;;;;;;;10.45;3.90;;;8.00;67.80;;;;;;5060387;28;20036;-68
2024/01/26 10:52:23;;;;;;;6.10;2.67;;;8.00;81.40;;;;;;5060323;28;20247;-68
2024/01/26 10:54:50;;;;;;;8.60;2.72;;;8.20;86.10;;;;;;5060575;28;20271;-68
2024/01/26 10:57:19;;;;;;;7.57;1.85;;;8.30;76.90;;;;;;5060569;28;20029;-69
2024/01/26 10:59:45;;;;;;;8.77;3.83;;;;;;;;;;5063774;28;20197;-68
2024/01/26 11:02:14;;;;;;;5.80;2.72;;;8.40;66.50;;;;;;5063696;28;20233;-68
2024/01/26 11:04:43;;;;;;;9.48;3.00;;;8.30;84.10;;;;;;5073045;28;20088;-68
2024/01/26 11:07:09;;;;;;;10.07;2.80;;;8.80;84.20;;;;;;5083734;28;20359;-69
2024/01/26 11:09:38;;;;;;;10.45;2.67;;;8.70;73.60;;;;;;5083738;28;20028;-68
2024/01/26 11:12:18;;;;;;;7.18;2.38;;;8.40;66.30;;;;;;5083877;28;20016;-68
2024/01/26 11:14:44;;;;;;;10.30;3.22;;;;;;;;;;5083488;28;20070;-68
2024/01/26 11:17:13;;;;;;;10.63;2.85;;;8.40;84.50;;;;;;5083685;28;20021;-68
2024/01/26 11:19:39;;;;;;;5.97;2.15;;;;;;;;;;5083497;28;20313;-68
2024/01/26 11:22:06;;;;;;;18.77;2.47;;;8.60;64.30;;;;;;5083377;28;20032;-68
2024/01/26 11:24:34;;;;;;;5.90;1.50;;;8.60;81.80;;;;;;5083352;28;20020;-68
2024/01/26 11:27:02;;;;;;;8.40;2.65;;;8.60;82.10;;;;;;5083496;28;20031;-70
2024/01/26 11:29:35;;;;;;;3.97;1.50;;;8.70;79.90;;;;;;5083280;28;20028;-69
2024/01/26 11:32:14;;;;;;;7.85;2.22;;;8.60;80.50;;;;;;5083202;28;20067;-69
2024/01/26 11:34:40;;;;;;;;;;;8.80;62.80;;;;;;5083997;28;20029;-68
2024/01/26 11:37:14;;;;;;;3.10;1.25;;;8.80;62.40;;;;;;5083163;28;20211;-69
2024/01/26 11:39:41;;;;;;;2.50;1.05;;;8.70;78.80;;;;;;5083521;28;20013;-69
2024/01/26 11:42:11;;;;;;;10.23;2.53;;;8.80;60.80;;;;;;5083036;28;20363;-68
2024/01/26 11:44:41;;;;;;;3.97;1.42;;;8.90;60.60;;;;;;5083765;28;20025;-68
2024/01/26 11:47:08;;;;;;;3.50;1.27;;;9.00;78.90;;;;;;5083245;28;20028;-68
2024/01/26 11:49:35;;;;;;;7.20;2.08;;;9.10;78.10;;;;;;5083265;28;20055;-69
2024/01/26 11:52:03;;;;;;;2.45;1.63;;;;;;;;;;5081811;28;20024;-68
2024/01/26 11:54:29;;;;;;;6.50;1.27;;;;;;;;;;5082677;28;20024;-69
2024/01/26 11:56:55;;;;;;;4.93;1.63;;;9.20;59.30;;;;;;5080836;28;20040;-68
2024/01/26 11:59:21;;;;;;;9.15;1.88;;;9.50;77.40;;;;;;5082422;28;20027;-68
2024/01/26 12:01:47;;;;;;;4.90;1.40;;;9.30;76.20;;;;;;5082208;28;20047;-68
2024/01/26 12:04:13;;;;;;;2.88;1.50;;;;;;;;;;5082607;28;20020;-68
2024/01/26 12:06:38;;;;;;;8.38;2.33;;;9.70;63.50;;;;;;5082610;28;20073;-68
2024/01/26 12:09:04;;;;;;;3.30;1.20;;;9.60;75.30;;;;;;5082306;28;20361;-68
2024/01/26 12:11:30;;;;;;;6.53;2.10;;;;;;;;;;5082992;28;20088;-68
2024/01/26 12:13:56;;;;;;;5.32;1.50;;;9.90;62.80;;;;;;5082547;28;20265;-68
2024/01/26 12:16:22;;;;;;;11.60;2.58;;;9.60;75.70;;;;;;5082698;28;20308;-68
2024/01/26 12:18:49;;;;;;;7.50;2.75;;;9.80;65.00;;;;;;5082359;28;20028;-68
2024/01/26 12:21:15;;;;;;;9.25;2.70;;;;;;;;;;5082200;28;20221;-69
2024/01/26 12:23:41;;;;;;;4.68;2.10;;;10.00;75.70;;;;;;5082276;28;20324;-69
2024/01/26 12:26:11;;;;;;;5.13;1.70;;;9.80;70.60;;;;;;5082154;28;20024;-68
2024/01/26 12:28:38;;;;;;;5.03;1.27;;;10.10;75.60;;;;;;5082455;28;20028;-68
2024/01/26 12:31:04;;;;;;;12.07;2.33;;;10.30;75.50;;;;;;5081993;28;20044;-68
2024/01/26 12:33:30;;;;;;;8.68;2.33;;;10.20;75.00;;;;;;5082429;28;20024;-69
2024/01/26 12:35:56;;;;;;;7.55;1.80;;;10.20;70.60;;;;;;5082058;28;20034;-68
2024/01/26 12:38:22;;;;;;;5.63;2.17;;;10.70;73.50;;;;;;5082246;28;20023;-69
2024/01/26 12:40:47;;;;;;;6.45;2.33;;;10.50;66.10;;;;;;5081993;28;20104;-69
2024/01/26 12:43:13;;;;;;;4.90;1.70;;;10.80;72.20;;;;;;5081815;28;20047;-69
2024/01/26 12:45:39;;;;;;;7.00;1.90;;;11.00;70.40;;;;;;5081740;28;20012;-69
2024/01/26 12:48:05;;;;;;;6.60;1.95;;;10.90;68.90;;;;;;5080109;28;20031;-69
2024/01/26 12:50:30;;;;;;;2.50;1.30;;;11.00;54.90;;;;;;5072390;28;20028;-70
2024/01/26 12:52:56;;;;;;;6.72;2.05;;;11.30;54.80;;;;;;5073293;28;20044;-70
2024/01/26 12:55:23;;;;;;;5.28;1.80;;;11.80;55.30;;;;;;5061815;28;20017;-70
2024/01/26 12:57:49;;;;;;;6.95;1.92;;;12.50;53.70;;;;;;5066136;28;20033;-71
2024/01/26 13:00:16;;;;;;;6.57;2.28;;;13.30;51.90;;;;;;5068153;28;20024;-70
2024/01/26 13:02:42;;;;;;;3.88;1.83;;;14.10;50.10;;;;;;5061486;28;20024;-70
2024/01/26 13:05:08;;;;;;;8.32;2.45;;;14.80;48.30;;;;;;5061547;28;20533;-70
2024/01/26 13:07:37;;;;;;;5.95;1.85;;;15.40;46.60;;;;;;5061574;28;20152;-70
2024/01/26 13:10:04;;;;;;;4.35;1.70;;;16.20;45.80;;;;;;5061606;28;20057;-70
2024/01/26 13:12:30;;;;;;;3.75;1.38;;;16.80;42.50;;;;;;5061466;28;20032;-69